Loop, Texas
Current Conditions -  °F | °C
As of 10:15 AM on Thursday 29 Jan 2015 (Local Time) from KGNC Reporting Station
Clear Clear  
Wind Chill: 52°   Ceiling: Unl
Heat Index: 52°   Visibility: 10mi
Dew Point: 35°   Wind: 18mph
Humidity: 52%   Direction: 50°NE
Pressure: 30.38"   Gusts: 23mph
Location:  32.92°N, 102.42°W
Report Text: KGNC 291615Z AUTO 05016G20KT 10SM CLR 11/02 A3038 RMK AO2 T01110015
Loading
Personal Weather Stations






























Interactive Weather Map New forecast layout! Learn more

10-Day Weather Forecast

Advertisements
Track Severe Weather on mobile